Hillsboro, Wisconsin
Current Conditions -  °F | °C
As of 1:35 PM on Thursday 27 Nov 2014 (Local Time) from KC35 Reporting Station
Clear Clear  
Wind Chill:   Ceiling: Unl
Heat Index: 14°   Visibility: 10mi
Dew Point:   Wind: 7mph
Humidity: 67%   Direction: 330°NNW
Pressure: 30.38"   Gusts: NA
Location:  43.65°N, 90.34°W
Report Text: KC35 271935Z AUTO 33006KT 10SM CLR M10/M15 A3038 RMK AO2 T10981149
Loading
Personal Weather Stations






























Interactive Weather Map New forecast layout! Learn more

10-Day Weather Forecast

Advertisements
Track Severe Weather on mobile